createdAt,value
2019-03-21T00:00:25.873Z,492.62
2019-03-21T00:01:25.862Z,495.25
2019-03-21T00:02:25.841Z,493.59
2019-03-21T00:03:25.869Z,489.75
2019-03-21T00:04:25.822Z,494.88
2019-03-21T00:05:25.826Z,495.58
2019-03-21T00:06:25.804Z,494.85
2019-03-21T00:07:25.794Z,493.08
2019-03-21T00:08:25.800Z,491.93
2019-03-21T00:09:25.783Z,492.67
2019-03-21T00:10:25.756Z,493.01
2019-03-21T00:11:25.743Z,492.26
2019-03-21T00:12:25.737Z,491.46
2019-03-21T00:13:25.766Z,493.31
2019-03-21T00:14:25.710Z,494.17
2019-03-21T00:15:25.729Z,490.95
2019-03-21T00:16:25.700Z,492.45
2019-03-21T00:17:25.684Z,493.60
2019-03-21T00:18:25.704Z,491.93
2019-03-21T00:19:25.666Z,492.10
2019-03-21T00:20:25.653Z,490.27
2019-03-21T00:21:25.636Z,492.05
2019-03-21T00:22:25.633Z,489.94
2019-03-21T00:23:25.650Z,489.43
2019-03-21T00:24:25.607Z,490.90
2019-03-21T00:25:25.592Z,493.65
2019-03-21T00:26:25.576Z,493.69
2019-03-21T00:27:25.577Z,492.65
2019-03-21T00:28:25.570Z,495.05
2019-03-21T00:29:25.562Z,492.48
2019-03-21T00:30:25.540Z,495.04
2019-03-21T00:31:25.531Z,492.76
2019-03-21T00:32:25.516Z,491.43
2019-03-21T00:33:25.534Z,493.20
2019-03-21T00:34:25.543Z,493.33
2019-03-21T00:35:25.481Z,493.90
2019-03-21T00:36:25.484Z,492.31
2019-03-21T00:37:25.463Z,492.61
2019-03-21T00:38:25.458Z,494.65
2019-03-21T00:39:32.699Z,493.02
2019-03-21T00:40:26.427Z,491.86
2019-03-21T00:41:25.410Z,490.24
2019-03-21T00:42:25.412Z,494.32
2019-03-21T00:43:25.393Z,492.65
2019-03-21T00:44:25.405Z,492.61
2019-03-21T00:45:25.375Z,491.15
2019-03-21T00:46:25.366Z,492.77
2019-03-21T00:47:25.347Z,494.27
2019-03-21T00:48:25.335Z,493.70
2019-03-21T00:49:25.347Z,487.27
2019-03-21T00:50:25.330Z,492.33
2019-03-21T00:51:25.307Z,493.76
2019-03-21T00:52:25.303Z,491.25
2019-03-21T00:53:25.281Z,494.61
2019-03-21T00:54:25.311Z,495.27
2019-03-21T00:55:25.260Z,516.24
2019-03-21T00:56:25.262Z,513.72
2019-03-21T00:57:25.249Z,517.00
2019-03-21T00:58:25.232Z,518.43
2019-03-21T00:59:25.234Z,515.38
2019-03-21T01:00:25.203Z,516.26
2019-03-21T01:01:25.183Z,518.41
2019-03-21T01:02:25.191Z,518.30
2019-03-21T01:03:25.169Z,514.64
2019-03-21T01:04:25.183Z,492.87
2019-03-21T01:05:25.157Z,515.52
2019-03-21T01:06:25.142Z,489.92
2019-03-21T01:07:25.137Z,513.55
2019-03-21T01:08:25.114Z,513.48
2019-03-21T01:09:25.131Z,514.23
2019-03-21T01:10:25.090Z,517.39
2019-03-21T01:11:25.095Z,518.20
2019-03-21T01:12:25.072Z,517.35
2019-03-21T01:13:25.068Z,508.46
2019-03-21T01:14:29.766Z,514.12
2019-03-21T01:15:26.032Z,514.42
2019-03-21T01:16:25.039Z,495.63
2019-03-21T01:17:25.017Z,517.57
2019-03-21T01:18:25.005Z,514.32
2019-03-21T01:19:25.017Z,515.52
2019-03-21T01:20:25.034Z,519.06
2019-03-21T01:21:24.965Z,491.89
2019-03-21T01:22:24.957Z,516.09
2019-03-21T01:23:24.960Z,511.36
2019-03-21T01:24:24.943Z,496.02
2019-03-21T01:25:24.944Z,517.95
2019-03-21T01:26:24.911Z,512.54
2019-03-21T01:27:24.902Z,515.09
2019-03-21T01:28:24.894Z,495.88
2019-03-21T01:29:24.886Z,517.18
2019-03-21T01:30:24.883Z,496.33
2019-03-21T01:31:24.852Z,518.36
2019-03-21T01:32:24.850Z,492.82
2019-03-21T01:33:24.843Z,496.17
2019-03-21T01:34:24.835Z,496.07
2019-03-21T01:35:24.843Z,494.27
2019-03-21T01:36:24.802Z,488.74
2019-03-21T01:37:24.782Z,517.57
2019-03-21T01:38:24.780Z,516.11
2019-03-21T01:39:24.778Z,517.18
2019-03-21T01:40:24.815Z,491.91
2019-03-21T01:41:24.748Z,493.07
2019-03-21T01:42:24.746Z,493.43
2019-03-21T01:43:24.725Z,492.87
2019-03-21T01:44:24.722Z,495.86
2019-03-21T01:45:24.723Z,493.36
2019-03-21T01:46:24.710Z,495.25
2019-03-21T01:47:24.701Z,495.13
2019-03-21T01:48:24.674Z,493.39
2019-03-21T01:49:24.666Z,491.77
2019-03-21T01:50:24.671Z,495.44
2019-03-21T01:51:24.664Z,490.73
2019-03-21T01:52:24.630Z,495.11
2019-03-21T01:53:24.611Z,493.44
2019-03-21T01:54:24.627Z,496.73
2019-03-21T01:55:24.613Z,492.62
2019-03-21T01:56:24.582Z,495.46
2019-03-21T01:57:24.574Z,488.69
2019-03-21T01:58:24.557Z,493.36
2019-03-21T01:59:24.554Z,493.24
2019-03-21T02:00:24.550Z,494.04
2019-03-21T02:01:24.526Z,490.38
2019-03-21T02:02:24.514Z,494.15
2019-03-21T02:03:24.509Z,495.77
2019-03-21T02:04:24.491Z,493.17
2019-03-21T02:05:24.502Z,493.13
2019-03-21T02:06:24.467Z,492.86
2019-03-21T02:07:24.470Z,495.62
2019-03-21T02:08:24.445Z,495.70
2019-03-21T02:09:24.455Z,517.54
2019-03-21T02:10:24.452Z,493.57
2019-03-21T02:11:24.410Z,514.78
2019-03-21T02:12:24.407Z,496.79
2019-03-21T02:13:24.394Z,496.46
2019-03-21T02:14:24.384Z,495.31
2019-03-21T02:15:25.040Z,495.20
2019-03-21T02:16:24.350Z,494.01
2019-03-21T02:17:24.352Z,495.64
2019-03-21T02:18:24.352Z,492.52
2019-03-21T02:19:24.325Z,493.84
2019-03-21T02:20:24.324Z,493.49
2019-03-21T02:21:24.329Z,493.63
2019-03-21T02:22:24.291Z,494.68
2019-03-21T02:23:24.285Z,494.83
2019-03-21T02:24:24.279Z,496.33
2019-03-21T02:25:24.268Z,496.49
2019-03-21T02:26:24.279Z,496.36
2019-03-21T02:27:24.238Z,494.60
2019-03-21T02:28:24.221Z,494.10
2019-03-21T02:29:24.229Z,493.09
2019-03-21T02:30:24.207Z,494.87
2019-03-21T02:31:24.221Z,494.29
2019-03-21T02:32:24.199Z,495.10
2019-03-21T02:33:24.170Z,495.42
2019-03-21T02:34:24.163Z,495.14
2019-03-21T02:35:24.148Z,491.49
2019-03-21T02:36:24.177Z,492.20
2019-03-21T02:37:24.126Z,494.99
2019-03-21T02:38:24.123Z,494.61
2019-03-21T02:39:24.105Z,518.62
2019-03-21T02:40:24.100Z,494.06
2019-03-21T02:41:25.753Z,496.63
2019-03-21T02:42:24.083Z,494.56
2019-03-21T02:43:24.062Z,493.46
2019-03-21T02:44:24.050Z,491.38
2019-03-21T02:45:24.035Z,493.76
2019-03-21T02:46:24.038Z,495.68
2019-03-21T02:47:24.026Z,495.78
2019-03-21T02:48:24.012Z,492.96
2019-03-21T02:49:23.999Z,492.81
2019-03-21T02:50:24.005Z,494.68
2019-03-21T02:51:24.004Z,496.86
2019-03-21T02:52:23.969Z,494.95
2019-03-21T02:53:23.963Z,495.93
2019-03-21T02:54:23.945Z,492.35
2019-03-21T02:55:23.929Z,493.03
2019-03-21T02:56:23.936Z,493.62
2019-03-21T02:57:23.927Z,494.94
2019-03-21T02:58:23.917Z,488.27
2019-03-21T02:59:23.889Z,493.40
2019-03-21T03:00:23.876Z,494.81
2019-03-21T03:01:23.896Z,492.98
2019-03-21T03:02:23.847Z,495.53
2019-03-21T03:03:23.848Z,489.61
2019-03-21T03:04:23.841Z,491.37
2019-03-21T03:05:23.818Z,491.62
2019-03-21T03:06:23.850Z,491.33
2019-03-21T03:07:23.809Z,490.89
2019-03-21T03:08:23.789Z,491.14
2019-03-21T03:09:23.762Z,512.25
2019-03-21T03:10:23.765Z,513.21
2019-03-21T03:11:23.756Z,494.82
2019-03-21T03:12:23.786Z,490.97
2019-03-21T03:13:23.773Z,491.30
2019-03-21T03:14:23.717Z,512.32
2019-03-21T03:15:23.763Z,490.44
2019-03-21T03:16:23.707Z,491.62
2019-03-21T03:17:23.711Z,491.79
2019-03-21T03:18:23.676Z,489.48
2019-03-21T03:19:23.655Z,493.35
2019-03-21T03:20:23.660Z,491.23
2019-03-21T03:21:23.646Z,492.95
2019-03-21T03:22:23.654Z,490.57
2019-03-21T03:23:23.621Z,492.35
2019-03-21T03:24:23.601Z,494.48
2019-03-21T03:25:23.609Z,491.74
2019-03-21T03:26:23.595Z,489.27
2019-03-21T03:27:23.613Z,491.88
2019-03-21T03:28:23.561Z,489.52
2019-03-21T03:29:23.556Z,490.08
2019-03-21T03:30:23.540Z,491.40
2019-03-21T03:31:23.536Z,493.01
2019-03-21T03:32:23.535Z,492.41
2019-03-21T03:33:23.516Z,492.42
2019-03-21T03:34:23.512Z,494.62
2019-03-21T03:35:23.493Z,492.42
2019-03-21T03:36:23.495Z,493.87
2019-03-21T03:37:23.477Z,490.08
2019-03-21T03:38:23.457Z,486.83
2019-03-21T03:39:23.437Z,489.58
2019-03-21T03:40:23.438Z,490.85
2019-03-21T03:41:23.419Z,512.51
2019-03-21T03:42:23.425Z,490.71
2019-03-21T03:43:23.402Z,494.95
2019-03-21T03:44:23.384Z,493.94
2019-03-21T03:45:36.739Z,492.90
2019-03-21T03:46:24.366Z,491.44
2019-03-21T03:47:23.354Z,489.68
2019-03-21T03:48:23.360Z,493.33
2019-03-21T03:49:23.321Z,492.26
2019-03-21T03:50:23.326Z,491.70
2019-03-21T03:51:23.305Z,488.71
2019-03-21T03:52:23.284Z,492.77
2019-03-21T03:53:23.310Z,490.97
2019-03-21T03:54:23.277Z,493.56
2019-03-21T03:55:23.264Z,490.53
2019-03-21T03:56:23.250Z,489.60
2019-03-21T03:57:23.241Z,491.75
2019-03-21T03:58:23.257Z,491.93
2019-03-21T03:59:23.217Z,491.73
2019-03-21T04:00:23.225Z,489.15
2019-03-21T04:01:23.205Z,491.35
2019-03-21T04:02:23.175Z,494.45
2019-03-21T04:03:23.184Z,489.37
2019-03-21T04:04:23.165Z,489.99
2019-03-21T04:05:23.149Z,491.46
2019-03-21T04:06:23.139Z,494.13
2019-03-21T04:07:23.133Z,487.68
2019-03-21T04:08:23.123Z,490.62
2019-03-21T04:09:23.107Z,512.72
2019-03-21T04:10:23.095Z,493.02
2019-03-21T04:11:23.188Z,511.86
2019-03-21T04:12:23.083Z,490.48
2019-03-21T04:13:23.096Z,512.42
2019-03-21T04:14:23.041Z,492.51
2019-03-21T04:15:23.058Z,513.30
2019-03-21T04:16:23.034Z,490.76
2019-03-21T04:17:23.037Z,490.32
2019-03-21T04:18:23.033Z,492.55
2019-03-21T04:19:22.994Z,487.99
2019-03-21T04:20:22.973Z,489.30
2019-03-21T04:21:22.968Z,489.62
2019-03-21T04:22:22.971Z,489.91
2019-03-21T04:23:22.963Z,492.60
2019-03-21T04:24:22.940Z,490.22
2019-03-21T04:25:22.930Z,491.62
2019-03-21T04:26:22.918Z,490.32
2019-03-21T04:27:22.920Z,490.97
2019-03-21T04:28:22.932Z,494.19
2019-03-21T04:29:22.906Z,487.66
2019-03-21T04:30:22.875Z,489.98
2019-03-21T04:31:22.861Z,491.52
2019-03-21T04:32:22.848Z,489.30
2019-03-21T04:33:23.181Z,492.08
2019-03-21T04:34:22.836Z,489.69
2019-03-21T04:35:22.814Z,489.76
2019-03-21T04:36:22.807Z,486.56
2019-03-21T04:37:22.789Z,492.28
2019-03-21T04:38:22.787Z,489.08
2019-03-21T04:39:22.780Z,488.51
2019-03-21T04:40:22.757Z,492.67
2019-03-21T04:41:22.748Z,511.04
2019-03-21T04:42:22.748Z,491.87
2019-03-21T04:43:22.732Z,492.29
2019-03-21T04:44:22.735Z,486.29
2019-03-21T04:45:22.712Z,488.80
2019-03-21T04:46:22.704Z,490.25
2019-03-21T04:47:22.688Z,492.52
2019-03-21T04:48:22.665Z,491.78
2019-03-21T04:49:22.677Z,489.56
2019-03-21T04:50:22.642Z,490.82
2019-03-21T04:51:22.628Z,490.71
2019-03-21T04:52:22.629Z,491.46
2019-03-21T04:53:22.640Z,488.63
2019-03-21T04:54:22.612Z,491.83
2019-03-21T04:55:22.586Z,488.88
2019-03-21T04:56:22.586Z,488.15
2019-03-21T04:57:22.570Z,489.32
2019-03-21T04:58:22.572Z,489.68
2019-03-21T04:59:22.562Z,489.71
2019-03-21T05:00:22.536Z,489.28
2019-03-21T05:01:22.525Z,487.61
2019-03-21T05:02:22.513Z,490.07
2019-03-21T05:03:22.503Z,489.95
2019-03-21T05:04:22.520Z,491.42
2019-03-21T05:05:22.482Z,489.56
2019-03-21T05:06:22.494Z,489.55
2019-03-21T05:07:22.465Z,487.78
2019-03-21T05:08:22.447Z,490.37
2019-03-21T05:09:22.452Z,508.90
2019-03-21T05:10:22.426Z,488.57
2019-03-21T05:11:22.411Z,509.46
2019-03-21T05:12:22.401Z,489.86
2019-03-21T05:13:22.397Z,485.71
2019-03-21T05:14:22.393Z,489.17
2019-03-21T05:15:22.384Z,484.96
2019-03-21T05:16:22.358Z,485.21
2019-03-21T05:17:22.347Z,485.96
2019-03-21T05:18:22.334Z,485.05
2019-03-21T05:19:22.356Z,483.20
2019-03-21T05:20:22.313Z,487.05
2019-03-21T05:21:22.313Z,488.74
2019-03-21T05:22:22.296Z,485.94
2019-03-21T05:23:22.278Z,483.67
2019-03-21T05:24:22.309Z,487.35
2019-03-21T05:25:22.265Z,483.03
2019-03-21T05:26:22.247Z,488.04
2019-03-21T05:27:22.244Z,485.32
2019-03-21T05:28:22.227Z,484.29
2019-03-21T05:29:22.208Z,484.76
2019-03-21T05:30:22.228Z,486.80
2019-03-21T05:31:22.190Z,483.61
2019-03-21T05:32:22.181Z,485.19
2019-03-21T05:33:22.185Z,481.34
2019-03-21T05:34:22.154Z,481.72
2019-03-21T05:35:22.167Z,485.18
2019-03-21T05:36:22.139Z,482.67
2019-03-21T05:37:22.125Z,481.65
2019-03-21T05:38:22.117Z,484.77
2019-03-21T05:39:22.106Z,506.80
2019-03-21T05:40:22.119Z,484.68
2019-03-21T05:41:22.081Z,506.97
2019-03-21T05:42:22.064Z,483.77
2019-03-21T05:43:22.060Z,484.87
2019-03-21T05:44:22.072Z,481.85
2019-03-21T05:45:22.066Z,484.55
2019-03-21T05:46:26.620Z,485.15
2019-03-21T05:47:23.026Z,484.75
2019-03-21T05:48:22.018Z,481.56
2019-03-21T05:49:21.988Z,483.88
2019-03-21T05:50:21.993Z,482.69
2019-03-21T05:51:21.967Z,485.03
2019-03-21T05:52:21.962Z,485.22
2019-03-21T05:53:21.976Z,486.44
2019-03-21T05:54:21.941Z,483.15
2019-03-21T05:55:21.944Z,483.53
2019-03-21T05:56:21.931Z,484.00
2019-03-21T05:57:21.900Z,482.56
2019-03-21T05:58:21.895Z,484.36
2019-03-21T05:59:21.888Z,482.79
2019-03-21T06:00:21.889Z,480.81
2019-03-21T06:01:21.877Z,486.73
2019-03-21T06:02:21.849Z,484.42
2019-03-21T06:03:21.836Z,484.23
2019-03-21T06:04:21.826Z,483.45
2019-03-21T06:05:21.833Z,485.05
2019-03-21T06:06:21.810Z,485.05
2019-03-21T06:07:21.796Z,483.50
2019-03-21T06:08:21.791Z,483.79
2019-03-21T06:09:21.792Z,485.38
2019-03-21T06:10:21.789Z,482.51
2019-03-21T06:11:21.754Z,485.53
2019-03-21T06:12:21.747Z,484.86
2019-03-21T06:13:21.731Z,485.79
2019-03-21T06:14:21.715Z,484.33
2019-03-21T06:15:21.745Z,479.77
2019-03-21T06:16:21.685Z,481.77
2019-03-21T06:17:21.689Z,482.49
2019-03-21T06:18:21.696Z,483.87
2019-03-21T06:19:21.651Z,483.80
2019-03-21T06:20:21.648Z,483.50
2019-03-21T06:21:21.670Z,480.75
2019-03-21T06:22:21.628Z,480.88
2019-03-21T06:23:21.622Z,480.36
2019-03-21T06:24:21.618Z,485.12
2019-03-21T06:25:21.598Z,485.78
2019-03-21T06:26:21.602Z,487.23
2019-03-21T06:27:21.573Z,480.64
2019-03-21T06:28:21.551Z,485.60
2019-03-21T06:29:21.547Z,485.97
2019-03-21T06:30:21.551Z,484.92
2019-03-21T06:31:21.542Z,484.36
2019-03-21T06:32:21.510Z,486.95
2019-03-21T06:33:21.537Z,483.08
2019-03-21T06:34:21.490Z,487.12
2019-03-21T06:35:21.496Z,486.81
2019-03-21T06:36:21.491Z,486.19
2019-03-21T06:37:21.467Z,483.12
2019-03-21T06:38:21.447Z,483.35
2019-03-21T06:39:21.443Z,482.56
2019-03-21T06:40:21.429Z,483.74
2019-03-21T06:41:21.435Z,480.73
2019-03-21T06:42:21.417Z,482.08
2019-03-21T06:43:21.417Z,486.19
2019-03-21T06:44:21.380Z,504.36
2019-03-21T06:45:21.365Z,481.52
2019-03-21T06:46:21.379Z,479.71
2019-03-21T06:47:21.348Z,480.32
2019-03-21T06:48:21.346Z,481.52
2019-03-21T06:49:21.380Z,479.92
2019-03-21T06:50:21.339Z,474.63
2019-03-21T06:51:21.357Z,478.91
2019-03-21T06:52:21.291Z,476.27
2019-03-21T06:53:21.277Z,480.07
2019-03-21T06:54:21.279Z,481.04
2019-03-21T06:55:21.255Z,478.89
2019-03-21T06:56:21.276Z,480.54
2019-03-21T06:57:21.227Z,477.93
2019-03-21T06:58:21.220Z,478.34
2019-03-21T06:59:21.214Z,477.39
2019-03-21T07:00:21.196Z,480.25
2019-03-21T07:01:21.209Z,477.90
2019-03-21T07:02:21.185Z,480.02
2019-03-21T07:03:21.182Z,480.04
2019-03-21T07:04:21.165Z,479.22
2019-03-21T07:05:21.159Z,479.87
2019-03-21T07:06:21.139Z,480.78
2019-03-21T07:07:21.135Z,478.20
2019-03-21T07:08:21.118Z,477.95
2019-03-21T07:09:21.094Z,481.31
2019-03-21T07:10:21.106Z,481.83
2019-03-21T07:11:21.084Z,505.49
2019-03-21T07:12:21.088Z,480.08
2019-03-21T07:13:21.054Z,481.70
2019-03-21T07:14:21.051Z,484.02
2019-03-21T07:15:21.030Z,504.80
2019-03-21T07:16:21.050Z,483.47
2019-03-21T07:17:22.889Z,507.97
2019-03-21T07:18:21.011Z,484.53
2019-03-21T07:19:20.996Z,484.23
2019-03-21T07:20:20.984Z,485.59
2019-03-21T07:21:20.969Z,479.83
2019-03-21T07:22:20.977Z,484.69
2019-03-21T07:23:20.949Z,483.15
2019-03-21T07:24:20.935Z,486.67
2019-03-21T07:25:20.922Z,483.79
2019-03-21T07:26:20.907Z,483.90
2019-03-21T07:27:20.930Z,478.39
2019-03-21T07:28:20.886Z,483.87
2019-03-21T07:29:20.880Z,486.47
2019-03-21T07:30:20.865Z,482.00
2019-03-21T07:31:20.865Z,481.62
2019-03-21T07:32:20.892Z,483.90
2019-03-21T07:33:20.830Z,484.99
2019-03-21T07:34:20.821Z,485.09
2019-03-21T07:35:20.821Z,483.76
2019-03-21T07:36:20.798Z,485.78
2019-03-21T07:37:20.806Z,483.00
2019-03-21T07:38:20.775Z,486.89
2019-03-21T07:39:20.773Z,488.43
2019-03-21T07:40:20.754Z,484.90
2019-03-21T07:41:20.742Z,484.59
2019-03-21T07:42:20.764Z,486.62
2019-03-21T07:43:22.300Z,485.16
2019-03-21T07:44:20.746Z,483.09
2019-03-21T07:45:20.705Z,485.12
2019-03-21T07:46:20.693Z,484.60
2019-03-21T07:47:20.709Z,482.88
2019-03-21T07:48:20.668Z,485.48
2019-03-21T07:49:20.667Z,485.65
2019-03-21T07:50:20.674Z,482.10
2019-03-21T07:51:20.678Z,485.57
2019-03-21T07:52:20.629Z,481.13
2019-03-21T07:53:22.117Z,479.32
2019-03-21T07:54:20.604Z,483.06
2019-03-21T07:55:20.582Z,483.99
2019-03-21T07:56:20.579Z,480.32
2019-03-21T07:57:20.562Z,483.76
2019-03-21T07:58:20.569Z,478.36
2019-03-21T07:59:20.565Z,479.11
2019-03-21T08:00:20.539Z,480.75
2019-03-21T08:01:20.529Z,480.34
2019-03-21T08:02:20.521Z,480.09
2019-03-21T08:03:20.519Z,482.16
2019-03-21T08:04:20.522Z,480.49
2019-03-21T08:05:20.479Z,484.74
2019-03-21T08:06:20.481Z,481.56
2019-03-21T08:07:20.463Z,480.04
2019-03-21T08:08:20.459Z,479.40
2019-03-21T08:09:20.426Z,481.51
2019-03-21T08:10:20.447Z,478.51
2019-03-21T08:11:20.419Z,482.84
2019-03-21T08:12:20.406Z,479.66
2019-03-21T08:13:20.422Z,482.47
2019-03-21T08:14:20.379Z,482.43
2019-03-21T08:15:20.379Z,482.12
2019-03-21T08:16:20.372Z,480.15
2019-03-21T08:17:20.339Z,479.70
2019-03-21T08:18:20.360Z,484.21
2019-03-21T08:19:20.325Z,482.26
2019-03-21T08:20:20.310Z,481.67
2019-03-21T08:21:20.311Z,480.16
2019-03-21T08:22:20.289Z,483.44
2019-03-21T08:23:20.314Z,482.25
2019-03-21T08:24:20.260Z,481.86
2019-03-21T08:25:20.265Z,480.89
2019-03-21T08:26:20.252Z,481.62
2019-03-21T08:27:20.246Z,483.80
2019-03-21T08:28:20.235Z,481.63
2019-03-21T08:29:20.206Z,482.50
2019-03-21T08:30:20.231Z,484.98
2019-03-21T08:31:20.273Z,479.54
2019-03-21T08:32:20.183Z,481.14
2019-03-21T08:33:20.198Z,481.71
2019-03-21T08:34:20.171Z,481.26
2019-03-21T08:35:20.147Z,483.45
2019-03-21T08:36:20.132Z,483.48
2019-03-21T08:37:20.139Z,485.67
2019-03-21T08:38:20.123Z,481.10
2019-03-21T08:39:20.121Z,485.61
2019-03-21T08:40:20.084Z,484.61
2019-03-21T08:41:20.070Z,482.58
2019-03-21T08:42:20.071Z,483.10
2019-03-21T08:43:20.079Z,485.35
2019-03-21T08:44:20.071Z,483.97
2019-03-21T08:45:20.032Z,482.35
2019-03-21T08:46:20.031Z,487.16
2019-03-21T08:47:20.012Z,484.29
2019-03-21T08:48:20.006Z,481.70
2019-03-21T08:49:20.025Z,486.07
2019-03-21T08:50:19.987Z,484.43
2019-03-21T08:51:19.976Z,487.13
2019-03-21T08:52:19.978Z,482.50
2019-03-21T08:53:19.955Z,483.07
2019-03-21T08:54:19.941Z,479.65
2019-03-21T08:55:19.920Z,481.92
2019-03-21T08:56:19.930Z,480.30
2019-03-21T08:57:19.932Z,482.61
2019-03-21T08:58:19.895Z,483.55
2019-03-21T08:59:19.897Z,482.12
2019-03-21T09:00:19.880Z,483.29
2019-03-21T09:01:19.873Z,483.48
2019-03-21T09:02:19.858Z,486.24
2019-03-21T09:03:19.866Z,485.50
2019-03-21T09:04:19.837Z,484.75
2019-03-21T09:05:19.811Z,481.56
2019-03-21T09:06:19.804Z,485.31
2019-03-21T09:07:19.837Z,486.59
2019-03-21T09:08:19.807Z,486.95
2019-03-21T09:09:19.793Z,482.07
2019-03-21T09:10:19.761Z,484.02
2019-03-21T09:11:19.773Z,486.10
2019-03-21T09:12:19.739Z,486.87
2019-03-21T09:13:19.754Z,484.56
2019-03-21T09:14:19.738Z,486.54
2019-03-21T09:15:19.694Z,485.57
2019-03-21T09:16:19.693Z,487.78
2019-03-21T09:17:19.684Z,486.19
2019-03-21T09:18:19.703Z,485.90
2019-03-21T09:19:19.696Z,482.87
2019-03-21T09:20:19.683Z,485.81
2019-03-21T09:21:20.164Z,508.73
2019-03-21T09:22:19.660Z,509.99
2019-03-21T09:23:19.622Z,508.49
2019-03-21T09:24:19.667Z,511.65
2019-03-21T09:25:19.587Z,511.34
2019-03-21T09:26:19.573Z,510.24
2019-03-21T09:27:19.573Z,511.77
2019-03-21T09:28:19.561Z,509.87
2019-03-21T09:29:19.564Z,512.51
2019-03-21T09:30:19.565Z,486.52
2019-03-21T09:31:19.539Z,509.02
2019-03-21T09:32:19.615Z,481.96
2019-03-21T09:33:19.502Z,509.09
2019-03-21T09:34:19.509Z,483.34
2019-03-21T09:35:19.488Z,505.40
2019-03-21T09:36:19.477Z,485.44
2019-03-21T09:37:19.470Z,481.83
2019-03-21T09:38:19.452Z,483.64
2019-03-21T09:39:19.435Z,504.83
2019-03-21T09:40:19.433Z,508.83
2019-03-21T09:41:19.409Z,508.56
2019-03-21T09:42:19.405Z,510.93
2019-03-21T09:43:19.415Z,508.30
2019-03-21T09:44:19.375Z,507.66
2019-03-21T09:45:19.387Z,509.10
2019-03-21T09:46:19.370Z,510.69
2019-03-21T09:47:19.355Z,511.39
2019-03-21T09:48:19.333Z,505.60
2019-03-21T09:49:19.323Z,509.63
2019-03-21T09:50:19.335Z,511.50
2019-03-21T09:51:30.313Z,511.51
2019-03-21T09:52:20.309Z,508.95
2019-03-21T09:53:19.282Z,511.51
2019-03-21T09:54:19.263Z,511.86
2019-03-21T09:55:19.270Z,513.67
2019-03-21T09:56:19.247Z,512.81
2019-03-21T09:57:19.241Z,512.16
2019-03-21T09:58:19.235Z,491.12
2019-03-21T09:59:19.216Z,492.00
2019-03-21T10:00:19.275Z,488.97
2019-03-21T10:01:19.216Z,511.20
2019-03-21T10:02:19.178Z,490.44
2019-03-21T10:03:19.183Z,512.15
2019-03-21T10:04:19.163Z,487.54
2019-03-21T10:05:19.164Z,508.81
2019-03-21T10:06:19.144Z,489.68
2019-03-21T10:07:19.147Z,510.00
2019-03-21T10:08:19.125Z,485.01
2019-03-21T10:09:19.109Z,510.97
2019-03-21T10:10:19.129Z,509.15
2019-03-21T10:11:19.100Z,507.50
2019-03-21T10:12:19.078Z,509.38
2019-03-21T10:13:19.050Z,507.38
2019-03-21T10:14:19.056Z,507.65
2019-03-21T10:15:19.076Z,505.85
2019-03-21T10:16:19.055Z,508.31
2019-03-21T10:17:19.012Z,510.61
2019-03-21T10:18:19.011Z,510.90
2019-03-21T10:19:19.003Z,510.96
2019-03-21T10:20:18.998Z,509.71
2019-03-21T10:21:18.984Z,508.96
2019-03-21T10:22:18.950Z,512.31
2019-03-21T10:23:18.954Z,513.67
2019-03-21T10:24:18.934Z,512.65
2019-03-21T10:25:18.920Z,513.51
2019-03-21T10:26:18.965Z,492.58
2019-03-21T10:27:18.907Z,516.06
2019-03-21T10:28:18.893Z,513.65
2019-03-21T10:29:18.878Z,514.13
2019-03-21T10:30:18.866Z,491.66
2019-03-21T10:31:18.905Z,513.92
2019-03-21T10:32:18.856Z,492.78
2019-03-21T10:33:18.850Z,494.62
2019-03-21T10:34:18.820Z,494.39
2019-03-21T10:35:18.822Z,492.65
2019-03-21T10:36:18.822Z,489.05
2019-03-21T10:37:18.851Z,491.42
2019-03-21T10:38:18.786Z,489.49
2019-03-21T10:39:18.811Z,492.15
2019-03-21T10:40:18.783Z,493.53
2019-03-21T10:41:18.761Z,493.13
2019-03-21T10:42:18.749Z,491.55
2019-03-21T10:43:18.732Z,492.56
2019-03-21T10:44:18.709Z,493.81
2019-03-21T10:45:18.703Z,493.41
2019-03-21T10:46:18.707Z,494.64
2019-03-21T10:47:18.685Z,493.96
2019-03-21T10:48:18.676Z,493.60
2019-03-21T10:49:18.653Z,494.33
2019-03-21T10:50:18.659Z,493.67
2019-03-21T10:51:18.658Z,493.38
2019-03-21T10:52:18.632Z,493.87
2019-03-21T10:53:18.607Z,493.99
2019-03-21T10:54:18.620Z,492.05
2019-03-21T10:55:18.588Z,490.44
2019-03-21T10:56:18.605Z,494.27
2019-03-21T10:57:18.577Z,492.46
2019-03-21T10:58:18.580Z,492.19
2019-03-21T10:59:18.565Z,493.44
2019-03-21T11:00:18.535Z,493.04
2019-03-21T11:01:18.562Z,487.29
2019-03-21T11:02:18.521Z,492.44
2019-03-21T11:03:18.496Z,492.58
2019-03-21T11:04:18.483Z,489.79
2019-03-21T11:05:18.483Z,492.97
2019-03-21T11:06:18.473Z,492.60
2019-03-21T11:07:18.473Z,493.89
2019-03-21T11:08:18.448Z,492.25
2019-03-21T11:09:18.439Z,493.06
2019-03-21T11:10:18.430Z,489.91
2019-03-21T11:11:18.414Z,489.70
2019-03-21T11:12:18.439Z,491.72
2019-03-21T11:13:18.390Z,493.92
2019-03-21T11:14:18.385Z,492.62
2019-03-21T11:15:18.374Z,492.23
2019-03-21T11:16:18.365Z,490.94
2019-03-21T11:17:18.379Z,487.87
2019-03-21T11:18:18.339Z,487.79
2019-03-21T11:19:18.357Z,491.56
2019-03-21T11:20:18.332Z,491.56
2019-03-21T11:21:18.317Z,492.33
2019-03-21T11:22:18.318Z,495.61
2019-03-21T11:23:18.360Z,493.73
2019-03-21T11:24:18.268Z,490.06
2019-03-21T11:25:18.278Z,495.02
2019-03-21T11:26:18.252Z,493.51
2019-03-21T11:27:18.245Z,493.56
2019-03-21T11:28:18.216Z,495.09
2019-03-21T11:29:18.216Z,491.64
2019-03-21T11:30:18.208Z,491.72
2019-03-21T11:31:18.191Z,490.65
2019-03-21T11:32:18.202Z,491.13
2019-03-21T11:33:18.174Z,492.77
2019-03-21T11:34:18.159Z,493.97
2019-03-21T11:35:18.166Z,494.83
2019-03-21T11:36:18.147Z,495.58
2019-03-21T11:37:18.168Z,491.83
2019-03-21T11:38:18.116Z,492.65
2019-03-21T11:39:19.094Z,494.71
2019-03-21T11:40:18.097Z,494.70
2019-03-21T11:41:18.078Z,493.33
2019-03-21T11:42:18.086Z,493.54
2019-03-21T11:43:18.085Z,492.10
2019-03-21T11:44:18.068Z,489.86
2019-03-21T11:45:18.040Z,487.94
2019-03-21T11:46:18.035Z,492.02
2019-03-21T11:47:18.030Z,490.18
2019-03-21T11:48:18.087Z,493.57
2019-03-21T11:49:17.995Z,493.43
2019-03-21T11:50:17.997Z,493.50
2019-03-21T11:51:17.982Z,494.48
2019-03-21T11:52:18.723Z,492.42
2019-03-21T11:53:17.952Z,494.15
2019-03-21T11:54:17.952Z,492.35
2019-03-21T11:55:17.927Z,492.86
2019-03-21T11:56:17.930Z,492.75
2019-03-21T11:57:17.924Z,492.79
2019-03-21T11:58:17.973Z,493.28
2019-03-21T11:59:17.893Z,494.82
2019-03-21T12:00:17.871Z,493.56
2019-03-21T12:01:17.865Z,495.22
2019-03-21T12:02:26.577Z,493.44
2019-03-21T12:03:18.838Z,494.59
2019-03-21T12:04:17.829Z,494.22
2019-03-21T12:05:17.816Z,494.78
2019-03-21T12:06:17.804Z,493.66
2019-03-21T12:07:17.807Z,493.89
2019-03-21T12:08:17.792Z,493.87
2019-03-21T12:09:17.769Z,493.57
2019-03-21T12:10:17.764Z,495.32
2019-03-21T12:11:17.743Z,493.62
2019-03-21T12:12:17.736Z,494.66
2019-03-21T12:13:17.734Z,493.79
2019-03-21T12:14:17.712Z,492.33
2019-03-21T12:15:17.717Z,493.66
2019-03-21T12:16:17.706Z,492.06
2019-03-21T12:17:17.691Z,493.91
2019-03-21T12:18:17.695Z,491.53
2019-03-21T12:19:17.666Z,491.52
2019-03-21T12:20:17.648Z,492.36
2019-03-21T12:21:17.650Z,492.02
2019-03-21T12:22:29.252Z,490.22
2019-03-21T12:23:18.641Z,493.79
2019-03-21T12:24:17.607Z,494.63
2019-03-21T12:25:17.594Z,495.87
2019-03-21T12:26:17.591Z,494.56
2019-03-21T12:27:17.648Z,495.55
2019-03-21T12:28:17.574Z,492.38